createdAt,value
2022-09-04T09:39:58.529Z,1017.26
2022-09-04T09:40:59.281Z,1017.23
2022-09-04T09:43:02.482Z,1017.25
2022-09-04T09:44:02.467Z,1017.25
2022-09-04T09:46:06.504Z,1017.26
2022-09-04T09:47:06.457Z,1017.23
2022-09-04T09:49:15.077Z,1017.25
2022-09-04T09:50:10.452Z,1017.23
2022-09-04T09:52:14.490Z,1017.25
2022-09-04T09:53:14.486Z,1017.23
2022-09-04T09:55:18.471Z,1017.24
2022-09-04T09:56:18.494Z,1017.22
2022-09-04T09:58:22.479Z,1017.23
2022-09-04T09:59:22.458Z,1017.20
2022-09-04T10:01:26.539Z,1017.15
2022-09-04T10:02:26.490Z,1017.14
2022-09-04T10:04:34.090Z,1017.19
2022-09-04T10:05:30.514Z,1017.17
2022-09-04T10:07:23.458Z,1017.20
2022-09-04T10:08:23.435Z,1017.16
2022-09-04T10:10:27.436Z,1017.17
2022-09-04T10:11:27.444Z,1017.16
2022-09-04T10:13:31.457Z,1017.20
2022-09-04T10:14:31.452Z,1017.20
2022-09-04T10:16:35.536Z,1017.26
2022-09-04T10:17:35.454Z,1017.23
2022-09-04T10:19:39.509Z,1017.19
2022-09-04T10:20:39.550Z,1017.23
2022-09-04T10:22:43.470Z,1017.09
2022-09-04T10:23:43.444Z,1017.12
2022-09-04T10:25:47.471Z,1017.17
2022-09-04T10:26:47.458Z,1017.23
2022-09-04T10:28:51.470Z,1017.23
2022-09-04T10:29:51.446Z,1017.23
2022-09-04T10:31:55.455Z,1017.25
2022-09-04T10:32:55.447Z,1017.25
2022-09-04T10:34:59.456Z,1017.31
2022-09-04T10:35:59.443Z,1017.28
2022-09-04T10:37:52.395Z,1017.28
2022-09-04T10:38:52.369Z,1017.33
2022-09-04T10:40:56.387Z,1017.30
2022-09-04T10:41:56.369Z,1017.31
2022-09-04T10:44:00.384Z,1017.33
2022-09-04T10:45:00.375Z,1017.36
2022-09-04T10:46:53.313Z,1017.34
2022-09-04T10:47:53.301Z,1017.38
2022-09-04T10:49:57.303Z,1017.34
2022-09-04T10:50:57.311Z,1017.32
2022-09-04T10:53:01.358Z,1017.31
2022-09-04T10:54:05.415Z,1017.34
2022-09-04T10:56:05.336Z,1017.32
2022-09-04T10:57:05.337Z,1017.27
2022-09-04T10:59:09.320Z,1017.30
2022-09-04T11:00:09.329Z,1017.25
2022-09-04T11:02:13.385Z,1017.24
2022-09-04T11:03:13.333Z,1017.24
2022-09-04T11:05:17.322Z,1017.19
2022-09-04T11:06:17.326Z,1017.20
2022-09-04T11:08:21.335Z,1017.19
2022-09-04T11:09:21.324Z,1017.21
2022-09-04T11:11:25.340Z,1017.28
2022-09-04T11:12:25.325Z,1017.23
2022-09-04T11:14:29.407Z,1017.32
2022-09-04T11:15:29.347Z,1017.30
2022-09-04T11:17:24.355Z,1017.33
2022-09-04T11:18:22.300Z,1017.32
2022-09-04T11:20:26.315Z,1017.35
2022-09-04T11:21:26.308Z,1017.31
2022-09-04T11:23:30.337Z,1017.28
2022-09-04T11:24:30.311Z,1017.29
2022-09-04T11:26:23.760Z,1017.29
2022-09-04T11:27:23.736Z,1017.29
2022-09-04T11:28:23.747Z,1017.26
2022-09-04T11:29:23.743Z,1017.24
2022-09-04T11:30:23.767Z,1017.27
2022-09-04T11:31:23.797Z,1017.26
2022-09-04T11:32:23.824Z,1017.26
2022-09-04T11:33:23.815Z,1017.26
2022-09-04T11:34:23.762Z,1017.26
2022-09-04T11:35:23.767Z,1017.24
2022-09-04T11:36:23.770Z,1017.24
2022-09-04T11:37:30.756Z,1017.25
2022-09-04T11:38:23.777Z,1017.23
2022-09-04T11:39:23.805Z,1017.21
2022-09-04T11:40:23.781Z,1017.23
2022-09-04T11:41:23.784Z,1017.16
2022-09-04T11:42:23.789Z,1017.19
2022-09-04T11:43:23.794Z,1017.19
2022-09-04T11:44:23.799Z,1017.10
2022-09-04T11:45:23.870Z,1017.13
2022-09-04T11:46:23.804Z,1017.08
2022-09-04T11:47:23.806Z,1017.11
2022-09-04T11:48:23.811Z,1017.10
2022-09-04T11:49:23.812Z,1017.08
2022-09-04T11:50:23.818Z,1017.08
2022-09-04T11:51:38.771Z,1017.09
2022-09-04T11:52:23.825Z,1017.06
2022-09-04T11:53:23.982Z,1017.05
2022-09-04T11:54:23.879Z,1017.05
2022-09-04T11:55:23.833Z,1017.11
2022-09-04T11:56:23.836Z,1017.04
2022-09-04T11:57:23.845Z,1017.06
2022-09-04T11:58:23.873Z,1016.99
2022-09-04T11:59:23.877Z,1016.98
2022-09-04T12:00:23.852Z,1016.99
2022-09-04T12:01:23.858Z,1017.03
2022-09-04T12:02:23.928Z,1017.01
2022-09-04T12:03:23.881Z,1016.96
2022-09-04T12:04:23.942Z,1016.98
2022-09-04T12:05:23.865Z,1017.06
2022-09-04T12:06:23.872Z,1016.97
2022-09-04T12:07:23.874Z,1016.94
2022-09-04T12:08:23.876Z,1016.92
2022-09-04T12:09:23.886Z,1016.93
2022-09-04T12:10:23.884Z,1016.89
2022-09-04T12:11:23.900Z,1016.89
2022-09-04T12:12:23.899Z,1016.94
2022-09-04T12:13:23.907Z,1016.94
2022-09-04T12:14:23.898Z,1016.93
2022-09-04T12:15:23.900Z,1016.92
2022-09-04T12:16:23.934Z,1016.89
2022-09-04T12:17:30.794Z,1016.92
2022-09-04T12:18:23.916Z,1016.87
2022-09-04T12:19:24.777Z,1016.90
2022-09-04T12:20:23.919Z,1016.90
2022-09-04T12:21:23.938Z,1016.87
2022-09-04T12:22:23.934Z,1016.91
2022-09-04T12:23:23.947Z,1016.89
2022-09-04T12:24:23.931Z,1016.89
2022-09-04T12:25:23.948Z,1016.88
2022-09-04T12:26:23.936Z,1016.86
2022-09-04T12:27:23.946Z,1016.83
2022-09-04T12:28:23.962Z,1016.84
2022-09-04T12:29:23.944Z,1016.85
2022-09-04T12:30:23.959Z,1016.87
2022-09-04T12:31:24.051Z,1016.88
2022-09-04T12:32:23.978Z,1016.92
2022-09-04T12:33:24.004Z,1016.93
2022-09-04T12:34:23.959Z,1016.91
2022-09-04T12:35:26.535Z,1016.93
2022-09-04T12:36:23.969Z,1016.86
2022-09-04T12:37:23.979Z,1016.87
2022-09-04T12:38:23.979Z,1016.88
2022-09-04T12:39:24.050Z,1016.86
2022-09-04T12:40:23.982Z,1016.88
2022-09-04T12:41:23.997Z,1016.85
2022-09-04T12:42:23.999Z,1016.86
2022-09-04T12:43:24.081Z,1016.90
2022-09-04T12:44:23.996Z,1016.83
2022-09-04T12:45:24.032Z,1016.84
2022-09-04T12:46:23.999Z,1016.76
2022-09-04T12:47:31.499Z,1016.88
2022-09-04T12:48:24.012Z,1016.92
2022-09-04T12:49:24.019Z,1016.88
2022-09-04T12:50:24.023Z,1016.94
2022-09-04T12:51:24.057Z,1016.88
2022-09-04T12:52:24.026Z,1016.87
2022-09-04T12:53:24.179Z,1016.94
2022-09-04T12:54:24.030Z,1016.88
2022-09-04T12:55:24.033Z,1016.88
2022-09-04T12:56:24.036Z,1016.91
2022-09-04T12:57:24.038Z,1016.90
2022-09-04T12:58:24.056Z,1016.87
2022-09-04T12:59:24.056Z,1016.91
2022-09-04T13:00:24.054Z,1016.93
2022-09-04T13:01:24.105Z,1016.85
2022-09-04T13:02:24.197Z,1016.86
2022-09-04T13:03:24.272Z,1016.91
2022-09-04T13:04:27.712Z,1016.89
2022-09-04T13:05:24.070Z,1016.90
2022-09-04T13:06:24.077Z,1016.89
2022-09-04T13:07:24.076Z,1016.87
2022-09-04T13:08:24.087Z,1016.87
2022-09-04T13:09:24.079Z,1016.92
2022-09-04T13:10:24.086Z,1016.89
2022-09-04T13:11:24.099Z,1016.90
2022-09-04T13:12:24.096Z,1016.93
2022-09-04T13:13:25.164Z,1016.90
2022-09-04T13:14:24.112Z,1016.90
2022-09-04T13:16:24.172Z,1016.91
2022-09-04T13:17:24.123Z,1016.90
2022-09-04T13:18:24.114Z,1016.91
2022-09-04T13:19:24.121Z,1016.90
2022-09-04T13:20:24.134Z,1016.91
2022-09-04T13:21:30.805Z,1016.89
2022-09-04T13:22:24.126Z,1016.92
2022-09-04T13:23:26.978Z,1016.88
2022-09-04T13:24:24.136Z,1016.96
2022-09-04T13:25:24.142Z,1016.95
2022-09-04T13:26:38.812Z,1016.97
2022-09-04T13:27:24.148Z,1017.01
2022-09-04T13:28:24.154Z,1016.97
2022-09-04T13:29:24.159Z,1016.97
2022-09-04T13:31:55.880Z,1016.96
2022-09-04T13:32:55.888Z,1017.00
2022-09-04T13:34:59.824Z,1016.95
2022-09-04T13:35:59.829Z,1017.00
2022-09-04T13:37:52.781Z,1016.96
2022-09-04T13:38:52.753Z,1016.94
2022-09-04T13:40:56.767Z,1016.97
2022-09-04T13:41:56.773Z,1016.98
2022-09-04T13:42:56.769Z,1016.98
2022-09-04T13:43:56.769Z,1016.96
2022-09-04T13:44:56.767Z,1016.97
2022-09-04T13:45:56.769Z,1017.05
2022-09-04T13:46:56.866Z,1017.03
2022-09-04T13:47:56.781Z,1017.02
2022-09-04T13:48:56.781Z,1017.09
2022-09-04T13:49:56.853Z,1017.04
2022-09-04T13:50:56.795Z,1017.03
2022-09-04T13:51:56.813Z,1017.06
2022-09-04T13:52:56.795Z,1017.08
2022-09-04T13:53:56.805Z,1017.11
2022-09-04T13:54:56.802Z,1017.10
2022-09-04T13:55:56.807Z,1017.13
2022-09-04T13:56:56.809Z,1017.11
2022-09-04T13:57:56.817Z,1017.18
2022-09-04T13:58:56.815Z,1017.15
2022-09-04T13:59:56.835Z,1017.18
2022-09-04T14:00:56.971Z,1017.14
2022-09-04T14:01:56.837Z,1017.17
2022-09-04T14:02:56.831Z,1017.11
2022-09-04T14:03:56.861Z,1017.08
2022-09-04T14:04:56.836Z,1017.08
2022-09-04T14:05:56.864Z,1017.09
2022-09-04T14:06:56.854Z,1017.08
2022-09-04T14:07:56.848Z,1017.09
2022-09-04T14:09:05.163Z,1017.06
2022-09-04T14:09:56.873Z,1017.01
2022-09-04T14:10:56.856Z,1017.10
2022-09-04T14:11:56.867Z,1017.09
2022-09-04T14:12:56.875Z,1017.07
2022-09-04T14:13:56.870Z,1017.09
2022-09-04T14:14:56.881Z,1017.13
2022-09-04T14:15:56.953Z,1017.13
2022-09-04T14:16:56.896Z,1017.15
2022-09-04T14:17:56.886Z,1017.14
2022-09-04T14:18:56.899Z,1017.12
2022-09-04T14:19:57.819Z,1017.19
2022-09-04T14:20:56.932Z,1017.12
2022-09-04T14:21:57.004Z,1017.12
2022-09-04T14:22:56.921Z,1017.08
2022-09-04T14:23:56.915Z,1017.05
2022-09-04T14:24:56.924Z,1017.09
2022-09-04T14:25:56.926Z,1017.07
2022-09-04T14:26:56.927Z,1017.09
2022-09-04T14:27:56.930Z,1017.09
2022-09-04T14:28:56.942Z,1017.09
2022-09-04T14:29:56.939Z,1017.07
2022-09-04T14:30:58.851Z,1017.09
2022-09-04T14:31:56.984Z,1017.11
2022-09-04T14:32:57.951Z,1017.06
2022-09-04T14:33:56.955Z,1017.07
2022-09-04T14:34:56.954Z,1017.09
2022-09-04T14:35:56.962Z,1017.11
2022-09-04T14:36:56.968Z,1017.11
2022-09-04T14:37:56.975Z,1017.06
2022-09-04T14:38:56.966Z,1017.07
2022-09-04T14:39:57.008Z,1017.04
2022-09-04T14:40:56.980Z,1017.07
2022-09-04T14:41:56.984Z,1017.15
2022-09-04T14:42:56.986Z,1017.20
2022-09-04T14:43:57.001Z,1017.19
2022-09-04T14:44:56.990Z,1017.18
2022-09-04T14:45:57.008Z,1017.19
2022-09-04T14:46:57.111Z,1017.27
2022-09-04T14:47:57.005Z,1017.19
2022-09-04T14:48:57.021Z,1017.24
2022-09-04T14:49:57.021Z,1017.24
2022-09-04T14:50:57.015Z,1017.20
2022-09-04T14:51:57.023Z,1017.24
2022-09-04T14:52:57.032Z,1017.22
2022-09-04T14:53:57.106Z,1017.22
2022-09-04T14:54:57.036Z,1017.23
2022-09-04T14:55:57.038Z,1017.28
2022-09-04T14:56:57.055Z,1017.26
2022-09-04T14:57:57.062Z,1017.26
2022-09-04T14:58:57.052Z,1017.21
2022-09-04T14:59:57.065Z,1017.23
2022-09-04T15:00:57.063Z,1017.23
2022-09-04T15:01:57.119Z,1017.23
2022-09-04T15:02:57.087Z,1017.24
2022-09-04T15:03:57.158Z,1017.25
2022-09-04T15:04:57.119Z,1017.23
2022-09-04T15:05:57.128Z,1017.25
2022-09-04T15:07:12.136Z,1017.24
2022-09-04T15:09:01.104Z,1017.21
2022-09-04T15:10:01.098Z,1017.20
2022-09-04T15:11:01.087Z,1017.16
2022-09-04T15:12:23.256Z,1017.18
2022-09-04T15:13:01.108Z,1017.15
2022-09-04T15:14:01.151Z,1017.14
2022-09-04T15:15:01.105Z,1017.16
2022-09-04T15:16:01.150Z,1017.16
2022-09-04T15:17:01.110Z,1017.15
2022-09-04T15:18:01.121Z,1017.11
2022-09-04T15:19:01.128Z,1017.17
2022-09-04T15:20:01.138Z,1017.15
2022-09-04T15:21:02.049Z,1017.20
2022-09-04T15:22:01.137Z,1017.16
2022-09-04T15:23:01.148Z,1017.16
2022-09-04T15:24:01.135Z,1017.18
2022-09-04T15:25:01.142Z,1017.18
2022-09-04T15:26:01.157Z,1017.18
2022-09-04T15:27:01.153Z,1017.20
2022-09-04T15:28:01.159Z,1017.21
2022-09-04T15:29:01.160Z,1017.23
2022-09-04T15:30:01.174Z,1017.21
2022-09-04T15:31:01.219Z,1017.22
2022-09-04T15:32:01.255Z,1017.22
2022-09-04T15:33:01.172Z,1017.23
2022-09-04T15:34:01.182Z,1017.25
2022-09-04T15:35:01.199Z,1017.21
2022-09-04T15:36:01.184Z,1017.19
2022-09-04T15:37:01.185Z,1017.17
2022-09-04T15:38:02.034Z,1017.20
2022-09-04T15:39:01.198Z,1017.23
2022-09-04T15:40:01.331Z,1017.14
2022-09-04T15:41:17.199Z,1017.17
2022-09-04T15:42:01.199Z,1017.19
2022-09-04T15:43:01.262Z,1017.18
2022-09-04T15:44:01.204Z,1017.19
2022-09-04T15:45:01.235Z,1017.18
2022-09-04T15:46:01.286Z,1017.20
2022-09-04T15:47:01.270Z,1017.21
2022-09-04T15:48:01.227Z,1017.24
2022-09-04T15:49:01.233Z,1017.21
2022-09-04T15:50:01.366Z,1017.26
2022-09-04T15:51:01.236Z,1017.25
2022-09-04T15:52:01.242Z,1017.29
2022-09-04T15:53:01.246Z,1017.32
2022-09-04T15:54:01.245Z,1017.27
2022-09-04T15:55:01.249Z,1017.31
2022-09-04T15:56:01.253Z,1017.25
2022-09-04T15:57:01.256Z,1017.26
2022-09-04T15:58:01.264Z,1017.25
2022-09-04T15:59:01.275Z,1017.26
2022-09-04T16:00:01.268Z,1017.25
2022-09-04T16:01:01.267Z,1017.25
2022-09-04T16:02:01.381Z,1017.26
2022-09-04T16:03:01.294Z,1017.28
2022-09-04T16:04:01.368Z,1017.24
2022-09-04T16:05:01.324Z,1017.29
2022-09-04T16:06:01.284Z,1017.28
2022-09-04T16:07:01.291Z,1017.30
2022-09-04T16:08:01.299Z,1017.33
2022-09-04T16:09:01.310Z,1017.29
2022-09-04T16:10:01.320Z,1017.32
2022-09-04T16:11:01.318Z,1017.36
2022-09-04T16:12:01.316Z,1017.37
2022-09-04T16:13:01.319Z,1017.36
2022-09-04T16:14:01.327Z,1017.39
2022-09-04T16:15:01.384Z,1017.39
2022-09-04T16:16:04.418Z,1017.36
2022-09-04T16:17:01.338Z,1017.34
2022-09-04T16:18:01.340Z,1017.34
2022-09-04T16:19:01.349Z,1017.34
2022-09-04T16:20:01.345Z,1017.33
2022-09-04T16:21:01.372Z,1017.37
2022-09-04T16:22:01.360Z,1017.32
2022-09-04T16:23:01.388Z,1017.37
2022-09-04T16:24:01.371Z,1017.35
2022-09-04T16:25:01.363Z,1017.40
2022-09-04T16:26:01.375Z,1017.44
2022-09-04T16:27:01.369Z,1017.44
2022-09-04T16:28:01.414Z,1017.46
2022-09-04T16:29:01.403Z,1017.44
2022-09-04T16:30:01.390Z,1017.46
2022-09-04T16:31:01.432Z,1017.43
2022-09-04T16:32:01.395Z,1017.45
2022-09-04T16:33:01.400Z,1017.45
2022-09-04T16:34:01.390Z,1017.45
2022-09-04T16:35:01.398Z,1017.45
2022-09-04T16:36:01.401Z,1017.47
2022-09-04T16:37:01.433Z,1017.44
2022-09-04T16:38:01.401Z,1017.46
2022-09-04T16:39:01.410Z,1017.52
2022-09-04T16:40:01.649Z,1017.51
2022-09-04T16:41:01.415Z,1017.52
2022-09-04T16:42:01.421Z,1017.55
2022-09-04T16:43:01.419Z,1017.55
2022-09-04T16:44:01.488Z,1017.58
2022-09-04T16:45:01.426Z,1017.60
2022-09-04T16:46:01.469Z,1017.62
2022-09-04T16:47:01.429Z,1017.61
2022-09-04T16:48:10.702Z,1017.61
2022-09-04T16:49:01.440Z,1017.64
2022-09-04T16:50:01.454Z,1017.63
2022-09-04T16:51:01.455Z,1017.60
2022-09-04T16:52:01.454Z,1017.62
2022-09-04T16:53:13.624Z,1017.66
2022-09-04T16:54:01.479Z,1017.61
2022-09-04T16:55:01.459Z,1017.62
2022-09-04T16:56:01.464Z,1017.67
2022-09-04T16:57:12.449Z,1017.61
2022-09-04T16:58:01.465Z,1017.66
2022-09-04T16:59:01.524Z,1017.67
2022-09-04T17:00:01.515Z,1017.67
2022-09-04T17:01:12.831Z,1017.67
2022-09-04T17:02:01.642Z,1017.70
2022-09-04T17:03:01.658Z,1017.71
2022-09-04T17:04:13.474Z,1017.76
2022-09-04T17:05:01.499Z,1017.74
2022-09-04T17:06:01.515Z,1017.76
2022-09-04T17:07:01.496Z,1017.75
2022-09-04T17:08:01.499Z,1017.72
2022-09-04T17:09:01.521Z,1017.73
2022-09-04T17:10:01.504Z,1017.79
2022-09-04T17:11:01.584Z,1017.77
2022-09-04T17:12:01.566Z,1017.78
2022-09-04T17:13:01.545Z,1017.78
2022-09-04T17:14:09.058Z,1017.77
2022-09-04T17:15:01.521Z,1017.76
2022-09-04T17:16:01.584Z,1017.81
2022-09-04T17:17:01.530Z,1017.80
2022-09-04T17:18:01.533Z,1017.82
2022-09-04T17:19:01.535Z,1017.82
2022-09-04T17:20:01.550Z,1017.84
2022-09-04T17:23:16.687Z,1017.82
2022-09-04T17:26:29.878Z,1017.85
2022-09-04T17:29:00.321Z,1017.88
2022-09-04T17:29:03.250Z,1017.82
2022-09-04T17:29:11.655Z,1017.83
2022-09-04T17:29:12.867Z,1017.82
2022-09-04T17:29:16.210Z,1017.85
2022-09-04T17:29:16.666Z,1017.84
2022-09-04T17:29:34.484Z,1017.84
2022-09-04T17:30:01.564Z,1017.85
2022-09-04T17:31:01.628Z,1017.84
2022-09-04T17:32:11.844Z,1017.86
2022-09-04T17:37:56.524Z,1017.87
2022-09-04T17:39:35.770Z,1017.84
2022-09-04T17:40:30.412Z,1017.89
2022-09-04T17:40:35.494Z,1017.87
2022-09-04T17:40:53.295Z,1017.89
2022-09-04T17:40:54.278Z,1017.89
2022-09-04T17:40:55.608Z,1017.90
2022-09-04T17:40:56.465Z,1017.93
2022-09-04T17:41:38.134Z,1017.92
2022-09-04T17:42:09.663Z,1017.96
2022-09-04T17:43:21.541Z,1017.94
2022-09-04T17:44:01.615Z,1018.00
2022-09-04T17:45:01.622Z,1018.05
2022-09-04T17:46:01.675Z,1018.06
2022-09-04T17:47:01.624Z,1018.09
2022-09-04T17:48:02.248Z,1018.11
2022-09-04T17:49:01.645Z,1018.12
2022-09-04T17:50:01.656Z,1018.10
2022-09-04T17:51:01.648Z,1018.18
2022-09-04T17:52:01.638Z,1018.17
2022-09-04T17:53:01.645Z,1018.14
2022-09-04T17:54:01.686Z,1018.17
2022-09-04T17:55:01.649Z,1018.18
2022-09-04T17:56:06.805Z,1018.19
2022-09-04T17:57:01.642Z,1018.21
2022-09-04T17:58:01.673Z,1018.25
2022-09-04T17:59:01.647Z,1018.27
2022-09-04T18:00:01.650Z,1018.24
2022-09-04T18:01:15.115Z,1018.28
2022-09-04T18:02:01.709Z,1018.27
2022-09-04T18:03:01.730Z,1018.28
2022-09-04T18:04:19.955Z,1018.24
2022-09-04T18:05:01.659Z,1018.27
2022-09-04T18:06:01.665Z,1018.27
2022-09-04T18:07:29.033Z,1018.27
2022-09-04T18:08:09.961Z,1018.27
2022-09-04T18:09:01.685Z,1018.26
2022-09-04T18:10:01.671Z,1018.30
2022-09-04T18:11:01.676Z,1018.29
2022-09-04T18:12:01.668Z,1018.33
2022-09-04T18:13:01.679Z,1018.34
2022-09-04T18:14:01.672Z,1018.38
2022-09-04T18:15:32.224Z,1018.36
2022-09-04T18:16:01.737Z,1018.40
2022-09-04T18:17:12.444Z,1018.43
2022-09-04T18:18:01.723Z,1018.44
2022-09-04T18:19:01.691Z,1018.44
2022-09-04T18:20:01.713Z,1018.43
2022-09-04T18:21:01.694Z,1018.48
2022-09-04T18:22:25.934Z,1018.47
2022-09-04T18:23:01.705Z,1018.47
2022-09-04T18:24:01.707Z,1018.49
2022-09-04T18:25:17.193Z,1018.46
2022-09-04T18:26:01.711Z,1018.49
2022-09-04T18:27:01.726Z,1018.50
2022-09-04T18:28:06.379Z,1018.49
2022-09-04T18:29:26.438Z,1018.50
2022-09-04T18:32:29.052Z,1018.47
2022-09-04T18:37:08.684Z,1018.49
2022-09-04T18:37:08.981Z,1018.49
2022-09-04T18:37:18.389Z,1018.54
2022-09-04T18:37:19.826Z,1018.53
2022-09-04T18:37:20.591Z,1018.49
2022-09-04T18:37:21.333Z,1018.55
2022-09-04T18:37:26.390Z,1018.55
2022-09-04T18:38:01.917Z,1018.56
2022-09-04T18:39:08.337Z,1018.59
2022-09-04T18:40:01.787Z,1018.53
2022-09-04T18:44:31.889Z,1018.60
2022-09-04T18:49:00.375Z,1018.60
2022-09-04T18:50:25.692Z,1018.62
2022-09-04T18:50:25.800Z,1018.62
2022-09-04T18:50:28.111Z,1018.68
2022-09-04T18:50:29.375Z,1018.61
2022-09-04T18:50:31.621Z,1018.62
2022-09-04T18:50:36.751Z,1018.65
2022-09-04T18:50:45.998Z,1018.65
2022-09-04T18:50:49.493Z,1018.65
2022-09-04T18:51:19.450Z,1018.64
2022-09-04T18:52:01.857Z,1018.68
2022-09-04T18:53:01.779Z,1018.71
2022-09-04T18:54:01.778Z,1018.74
2022-09-04T18:55:01.776Z,1018.75
2022-09-04T18:56:01.771Z,1018.83
2022-09-04T18:57:01.776Z,1018.82
2022-09-04T18:58:01.769Z,1018.81
2022-09-04T18:59:01.778Z,1018.84
2022-09-04T19:00:07.840Z,1018.81
2022-09-04T19:01:01.932Z,1018.84
2022-09-04T19:02:01.947Z,1018.88
2022-09-04T19:03:01.806Z,1018.86
2022-09-04T19:04:01.789Z,1018.84
2022-09-04T19:05:01.804Z,1018.84
2022-09-04T19:06:02.589Z,1018.85
2022-09-04T19:07:07.911Z,1018.83
2022-09-04T19:08:01.810Z,1018.83
2022-09-04T19:09:01.792Z,1018.84
2022-09-04T19:10:01.795Z,1018.81
2022-09-04T19:11:01.802Z,1018.79
2022-09-04T19:12:01.816Z,1018.82
2022-09-04T19:13:01.813Z,1018.79
2022-09-04T19:14:09.918Z,1018.81
2022-09-04T19:15:01.803Z,1018.80
2022-09-04T19:16:01.887Z,1018.83
2022-09-04T19:17:01.862Z,1018.80
2022-09-04T19:18:01.857Z,1018.79
2022-09-04T19:19:01.812Z,1018.83
2022-09-04T19:20:01.816Z,1018.78
2022-09-04T19:21:01.824Z,1018.83
2022-09-04T19:22:01.814Z,1018.80
2022-09-04T19:23:01.824Z,1018.78
2022-09-04T19:24:01.941Z,1018.81
2022-09-04T19:25:01.858Z,1018.80
2022-09-04T19:26:01.861Z,1018.81
2022-09-04T19:27:01.833Z,1018.78
2022-09-04T19:28:01.876Z,1018.80
2022-09-04T19:29:01.834Z,1018.79
2022-09-04T19:30:05.214Z,1018.81
2022-09-04T19:31:01.852Z,1018.82
2022-09-04T19:32:01.981Z,1018.82
2022-09-04T19:33:01.866Z,1018.83
2022-09-04T19:34:01.844Z,1018.86
2022-09-04T19:35:01.855Z,1018.81
2022-09-04T19:36:01.913Z,1018.82
2022-09-04T19:37:20.409Z,1018.83
2022-09-04T19:44:03.947Z,1018.85
2022-09-04T19:45:55.599Z,1018.81
2022-09-04T19:46:00.357Z,1018.81
2022-09-04T19:46:02.603Z,1018.85
2022-09-04T19:46:03.963Z,1018.83
2022-09-04T19:46:11.718Z,1018.84
2022-09-04T19:46:16.212Z,1018.82
2022-09-04T19:46:18.862Z,1018.83
2022-09-04T19:46:26.209Z,1018.83
2022-09-04T19:47:02.008Z,1018.83
2022-09-04T19:48:02.009Z,1018.86
2022-09-04T19:49:46.516Z,1018.85
2022-09-04T19:53:11.478Z,1018.81
2022-09-04T19:53:23.204Z,1018.83
2022-09-04T19:53:35.189Z,1018.83
2022-09-04T19:53:36.106Z,1018.83
2022-09-04T19:54:01.877Z,1018.83
2022-09-04T19:55:23.419Z,1018.83
2022-09-04T19:56:01.887Z,1018.82
2022-09-04T19:57:32.582Z,1018.83
2022-09-04T19:58:01.970Z,1018.81
2022-09-04T19:59:01.905Z,1018.79
2022-09-04T20:00:28.203Z,1018.79
2022-09-04T20:01:01.920Z,1018.82
2022-09-04T20:02:03.670Z,1018.85
2022-09-04T20:03:01.905Z,1018.87
2022-09-04T20:04:01.927Z,1018.84
2022-09-04T20:05:01.923Z,1018.88
2022-09-04T20:06:19.780Z,1018.86
2022-09-04T20:07:01.922Z,1018.87
2022-09-04T20:08:01.901Z,1018.86
2022-09-04T20:09:01.959Z,1018.85
2022-09-04T20:10:02.693Z,1018.85
2022-09-04T20:11:01.916Z,1018.90
2022-09-04T20:12:01.906Z,1018.88
2022-09-04T20:13:01.958Z,1018.88
2022-09-04T20:14:02.191Z,1018.88
2022-09-04T20:15:01.952Z,1018.85
2022-09-04T20:16:01.973Z,1018.82
2022-09-04T20:17:02.008Z,1018.88
2022-09-04T20:18:04.287Z,1018.89
2022-09-04T20:19:01.914Z,1018.88
2022-09-04T20:20:01.945Z,1018.84
2022-09-04T20:21:01.940Z,1018.87
2022-09-04T20:22:01.973Z,1018.92
2022-09-04T20:23:01.940Z,1018.90
2022-09-04T20:24:01.942Z,1018.88
2022-09-04T20:25:02.578Z,1018.93
2022-09-04T20:26:01.956Z,1018.92
2022-09-04T20:27:01.950Z,1018.93
2022-09-04T20:28:01.971Z,1018.94
2022-09-04T20:29:01.926Z,1018.91
2022-09-04T20:30:02.076Z,1018.96
2022-09-04T20:31:01.980Z,1018.96
2022-09-04T20:32:01.993Z,1018.95
2022-09-04T20:33:01.981Z,1018.94
2022-09-04T20:34:01.930Z,1018.97
2022-09-04T20:35:14.070Z,1018.98
2022-09-04T20:36:01.934Z,1018.98
2022-09-04T20:37:01.939Z,1018.98
2022-09-04T20:38:01.957Z,1019.08
2022-09-04T20:39:01.949Z,1019.01
2022-09-04T20:40:02.029Z,1019.04
2022-09-04T20:41:01.953Z,1019.06
2022-09-04T20:42:01.954Z,1019.04
2022-09-04T20:43:01.954Z,1019.06
2022-09-04T20:44:01.944Z,1019.09
2022-09-04T20:46:26.409Z,1019.07
2022-09-04T20:48:43.329Z,1019.10
2022-09-04T20:52:44.558Z,1019.09
2022-09-04T20:52:49.296Z,1019.10
2022-09-04T20:52:52.986Z,1019.13
2022-09-04T20:52:53.163Z,1019.11
2022-09-04T20:52:56.702Z,1019.08
2022-09-04T20:53:00.394Z,1019.10
2022-09-04T20:53:07.754Z,1019.05
2022-09-04T20:54:02.051Z,1019.07
2022-09-04T20:55:01.957Z,1019.09
2022-09-04T20:56:01.949Z,1019.10
2022-09-04T21:01:12.570Z,1019.07
2022-09-04T21:03:05.536Z,1019.09
2022-09-04T21:03:10.003Z,1019.07
2022-09-04T21:03:10.583Z,1019.10
2022-09-04T21:03:11.657Z,1019.08
2022-09-04T21:03:14.758Z,1019.11
2022-09-04T21:03:21.751Z,1019.14
2022-09-04T21:04:02.076Z,1019.16
2022-09-04T21:05:02.088Z,1019.15
2022-09-04T21:06:06.840Z,1019.17
2022-09-04T21:07:01.971Z,1019.16
2022-09-04T21:08:01.982Z,1019.22
2022-09-04T21:09:01.974Z,1019.23
2022-09-04T21:10:01.970Z,1019.22
2022-09-04T21:11:01.965Z,1019.26
2022-09-04T21:12:01.966Z,1019.27
2022-09-04T21:13:14.066Z,1019.28
2022-09-04T21:14:01.999Z,1019.28
2022-09-04T21:15:02.017Z,1019.25
2022-09-04T21:16:02.019Z,1019.29
2022-09-04T21:17:02.020Z,1019.29
2022-09-04T21:18:01.973Z,1019.31
2022-09-04T21:19:14.372Z,1019.32
2022-09-04T21:20:01.989Z,1019.36
2022-09-04T21:21:01.981Z,1019.37
2022-09-04T21:22:01.979Z,1019.39
2022-09-04T21:23:01.990Z,1019.39
2022-09-04T21:24:03.068Z,1019.40
2022-09-04T21:25:02.024Z,1019.46
2022-09-04T21:26:01.993Z,1019.45
2022-09-04T21:27:02.005Z,1019.41
2022-09-04T21:28:01.988Z,1019.45
2022-09-04T21:29:10.592Z,1019.45
2022-09-04T21:30:01.983Z,1019.47
2022-09-04T21:31:02.042Z,1019.49
2022-09-04T21:32:02.075Z,1019.45
2022-09-04T21:33:26.631Z,1019.55
2022-09-04T21:34:02.002Z,1019.50
2022-09-04T21:35:01.987Z,1019.53
2022-09-04T21:36:25.211Z,1019.53
2022-09-04T21:37:01.991Z,1019.47
2022-09-04T21:38:01.997Z,1019.54
2022-09-04T21:39:02.000Z,1019.47
2022-09-04T21:40:02.065Z,1019.46
2022-09-04T21:41:01.999Z,1019.47
2022-09-04T21:42:02.980Z,1019.48
2022-09-04T21:43:02.051Z,1019.50
2022-09-04T21:44:01.998Z,1019.51
2022-09-04T21:45:02.005Z,1019.52
2022-09-04T21:46:01.992Z,1019.50
2022-09-04T21:47:08.428Z,1019.53
2022-09-04T21:48:02.031Z,1019.54
2022-09-04T21:49:07.619Z,1019.56
2022-09-04T21:50:02.000Z,1019.55
2022-09-04T21:51:02.028Z,1019.55
2022-09-04T21:52:01.997Z,1019.58
2022-09-04T21:53:02.019Z,1019.52
2022-09-04T21:54:02.022Z,1019.54
2022-09-04T21:57:28.837Z,1019.54
2022-09-04T21:59:41.170Z,1019.52
2022-09-04T22:02:25.877Z,1019.53
2022-09-04T22:02:31.820Z,1019.52
2022-09-04T22:02:39.057Z,1019.53
2022-09-04T22:02:41.705Z,1019.50
2022-09-04T22:02:42.254Z,1019.55
2022-09-04T22:02:43.253Z,1019.54
2022-09-04T22:03:02.829Z,1019.58
2022-09-04T22:04:02.108Z,1019.57
2022-09-04T22:05:02.282Z,1019.54
2022-09-04T22:06:03.830Z,1019.57
2022-09-04T22:11:55.593Z,1019.56
2022-09-04T22:12:22.335Z,1019.59
2022-09-04T22:13:31.880Z,1019.61
2022-09-04T22:13:32.036Z,1019.61
2022-09-04T22:13:33.828Z,1019.56
2022-09-04T22:13:37.504Z,1019.60
2022-09-04T22:13:38.855Z,1019.57
2022-09-04T22:14:03.159Z,1019.57
2022-09-04T22:15:02.027Z,1019.64
2022-09-04T22:16:02.172Z,1019.63
2022-09-04T22:17:02.027Z,1019.64
2022-09-04T22:18:02.011Z,1019.59
2022-09-04T22:19:02.066Z,1019.66
2022-09-04T22:20:02.085Z,1019.64
2022-09-04T22:21:02.018Z,1019.63
2022-09-04T22:22:03.626Z,1019.64
2022-09-04T22:23:02.050Z,1019.63
2022-09-04T22:24:02.035Z,1019.65
2022-09-04T22:25:02.043Z,1019.64
2022-09-04T22:26:16.217Z,1019.63
2022-09-04T22:27:02.030Z,1019.66
2022-09-04T22:28:07.647Z,1019.63